createdAt,value
2017-10-17T00:00:59.072Z,0.00
2017-10-17T00:01:59.051Z,0.00
2017-10-17T00:02:59.032Z,0.00
2017-10-17T00:03:59.012Z,0.00
2017-10-17T00:04:58.991Z,0.00
2017-10-17T00:05:59.219Z,0.00
2017-10-17T00:06:58.949Z,0.00
2017-10-17T00:07:58.924Z,0.00
2017-10-17T00:08:58.903Z,0.00
2017-10-17T00:09:58.882Z,0.00
2017-10-17T00:10:58.861Z,0.00
2017-10-17T00:11:58.839Z,0.00
2017-10-17T00:12:58.820Z,0.00
2017-10-17T00:13:58.796Z,0.00
2017-10-17T00:14:58.779Z,0.00
2017-10-17T00:15:58.758Z,0.00
2017-10-17T00:16:58.738Z,0.00
2017-10-17T00:17:58.716Z,0.00
2017-10-17T00:18:58.700Z,0.00
2017-10-17T00:19:58.676Z,0.00
2017-10-17T00:20:58.648Z,0.00
2017-10-17T00:21:58.631Z,0.00
2017-10-17T00:22:58.613Z,0.00
2017-10-17T00:23:58.887Z,0.00
2017-10-17T00:24:58.593Z,0.00
2017-10-17T00:25:58.545Z,0.00
2017-10-17T00:26:58.526Z,0.00
2017-10-17T00:27:58.508Z,0.00
2017-10-17T00:28:58.484Z,0.00
2017-10-17T00:29:58.465Z,0.00
2017-10-17T00:30:58.441Z,0.00
2017-10-17T00:31:58.423Z,0.00
2017-10-17T00:32:58.397Z,0.00
2017-10-17T00:33:58.380Z,0.00
2017-10-17T00:34:58.362Z,0.00
2017-10-17T00:35:58.589Z,0.00
2017-10-17T00:36:58.323Z,0.00
2017-10-17T00:37:58.295Z,0.00
2017-10-17T00:38:58.274Z,0.00
2017-10-17T00:39:58.257Z,0.00
2017-10-17T00:40:58.585Z,0.00
2017-10-17T00:41:58.212Z,0.00
2017-10-17T00:42:58.191Z,0.00
2017-10-17T00:43:58.172Z,0.00
2017-10-17T00:44:58.148Z,0.00
2017-10-17T00:45:58.128Z,0.00
2017-10-17T00:46:58.110Z,0.00
2017-10-17T00:47:58.090Z,0.00
2017-10-17T00:48:58.068Z,0.00
2017-10-17T00:49:58.051Z,0.00
2017-10-17T00:50:58.031Z,0.00
2017-10-17T00:51:58.006Z,0.00
2017-10-17T00:52:57.989Z,0.00
2017-10-17T00:53:57.984Z,0.00
2017-10-17T00:54:57.943Z,0.00
2017-10-17T00:55:57.931Z,0.00
2017-10-17T00:56:57.904Z,0.00
2017-10-17T00:57:57.885Z,0.00
2017-10-17T00:58:58.112Z,0.00
2017-10-17T00:59:57.842Z,0.00
2017-10-17T01:00:57.816Z,0.00
2017-10-17T01:01:57.800Z,0.00
2017-10-17T01:02:57.782Z,0.00
2017-10-17T01:03:57.756Z,0.00
2017-10-17T01:04:57.738Z,0.00
2017-10-17T01:05:57.719Z,0.00
2017-10-17T01:06:57.691Z,0.00
2017-10-17T01:07:57.674Z,0.00
2017-10-17T01:08:57.665Z,0.00
2017-10-17T01:09:57.633Z,0.00
2017-10-17T01:10:57.864Z,0.00
2017-10-17T01:11:57.598Z,0.00
2017-10-17T01:12:57.566Z,0.00
2017-10-17T01:13:57.547Z,0.00
2017-10-17T01:14:57.529Z,0.00
2017-10-17T01:15:57.508Z,0.00
2017-10-17T01:16:57.837Z,0.00
2017-10-17T01:17:57.465Z,0.00
2017-10-17T01:18:57.445Z,0.00
2017-10-17T01:19:57.426Z,0.00
2017-10-17T01:20:57.405Z,0.00
2017-10-17T01:21:57.381Z,0.00
2017-10-17T01:22:57.357Z,0.00
2017-10-17T01:23:57.339Z,0.00
2017-10-17T01:24:57.319Z,0.00
2017-10-17T01:25:57.295Z,0.00
2017-10-17T01:26:57.293Z,0.00
2017-10-17T01:27:57.254Z,0.00
2017-10-17T01:28:57.235Z,0.00
2017-10-17T01:29:57.214Z,0.00
2017-10-17T01:30:57.195Z,0.00
2017-10-17T01:31:57.173Z,0.00
2017-10-17T01:32:57.154Z,0.00
2017-10-17T01:33:57.144Z,0.00
2017-10-17T01:34:57.110Z,0.00
2017-10-17T01:35:57.085Z,0.00
2017-10-17T01:36:57.066Z,0.00
2017-10-17T01:37:57.049Z,0.00
2017-10-17T01:38:57.027Z,0.00
2017-10-17T01:39:57.353Z,0.00
2017-10-17T01:40:56.985Z,0.00
2017-10-17T01:41:56.958Z,0.00
2017-10-17T01:42:56.946Z,0.00
2017-10-17T01:43:56.919Z,0.00
2017-10-17T01:44:56.899Z,0.00
2017-10-17T01:45:57.228Z,0.00
2017-10-17T01:46:56.852Z,0.00
2017-10-17T01:47:56.834Z,0.00
2017-10-17T01:48:56.810Z,0.00
2017-10-17T01:49:56.791Z,0.00
2017-10-17T01:50:56.773Z,0.00
2017-10-17T01:51:56.748Z,0.00
2017-10-17T01:52:56.725Z,0.00
2017-10-17T01:53:56.722Z,0.00
2017-10-17T01:54:56.708Z,0.00
2017-10-17T01:55:56.667Z,0.00
2017-10-17T01:56:56.642Z,0.00
2017-10-17T01:57:56.620Z,0.00
2017-10-17T01:58:56.597Z,0.00
2017-10-17T01:59:56.579Z,0.00
2017-10-17T02:00:56.559Z,0.00
2017-10-17T02:01:56.534Z,0.00
2017-10-17T02:02:56.516Z,0.00
2017-10-17T02:03:56.498Z,0.00
2017-10-17T02:04:56.472Z,0.00
2017-10-17T02:05:56.456Z,0.00
2017-10-17T02:06:56.428Z,0.00
2017-10-17T02:07:56.413Z,0.00
2017-10-17T02:08:56.393Z,0.00
2017-10-17T02:09:56.616Z,0.00
2017-10-17T02:10:56.345Z,0.00
2017-10-17T02:11:56.322Z,0.00
2017-10-17T02:12:56.298Z,0.00
2017-10-17T02:13:56.286Z,0.00
2017-10-17T02:14:56.567Z,0.00
2017-10-17T02:15:56.236Z,0.00
2017-10-17T02:16:56.213Z,0.00
2017-10-17T02:17:56.200Z,0.00
2017-10-17T02:18:56.172Z,0.00
2017-10-17T02:19:56.153Z,0.00
2017-10-17T02:20:56.129Z,0.00
2017-10-17T02:21:56.107Z,0.00
2017-10-17T02:22:56.086Z,0.00
2017-10-17T02:23:56.068Z,0.00
2017-10-17T02:24:56.043Z,0.00
2017-10-17T02:25:56.028Z,0.00
2017-10-17T02:26:56.250Z,0.00
2017-10-17T02:27:55.983Z,0.00
2017-10-17T02:28:55.956Z,0.00
2017-10-17T02:29:55.939Z,0.00
2017-10-17T02:30:55.914Z,0.00
2017-10-17T02:31:55.894Z,0.00
2017-10-17T02:32:55.876Z,0.00
2017-10-17T02:33:55.849Z,0.00
2017-10-17T02:34:55.827Z,0.00
2017-10-17T02:35:55.809Z,0.00
2017-10-17T02:36:55.784Z,0.00
2017-10-17T02:37:56.031Z,0.00
2017-10-17T02:38:55.755Z,0.00
2017-10-17T02:39:55.724Z,0.00
2017-10-17T02:40:55.697Z,0.00
2017-10-17T02:41:55.679Z,0.00
2017-10-17T02:42:55.655Z,0.00
2017-10-17T02:43:55.637Z,0.00
2017-10-17T02:44:55.618Z,0.00
2017-10-17T02:45:55.592Z,0.00
2017-10-17T02:46:55.573Z,0.00
2017-10-17T02:47:55.552Z,0.00
2017-10-17T02:48:55.528Z,0.00
2017-10-17T02:49:55.504Z,0.00
2017-10-17T02:50:55.492Z,0.00
2017-10-17T02:51:55.466Z,0.00
2017-10-17T02:52:55.443Z,0.00
2017-10-17T02:53:55.419Z,0.00
2017-10-17T02:54:55.415Z,0.00
2017-10-17T02:55:55.627Z,0.00
2017-10-17T02:56:55.354Z,0.00
2017-10-17T02:57:55.331Z,0.00
2017-10-17T02:58:55.312Z,0.00
2017-10-17T02:59:55.293Z,0.00
2017-10-17T03:00:55.270Z,0.00
2017-10-17T03:01:55.552Z,0.00
2017-10-17T03:02:55.228Z,0.00
2017-10-17T03:03:55.210Z,0.00
2017-10-17T03:04:55.180Z,0.00
2017-10-17T03:05:55.159Z,0.00
2017-10-17T03:06:55.139Z,0.00
2017-10-17T03:07:55.369Z,0.00
2017-10-17T03:08:55.093Z,0.00
2017-10-17T03:09:55.079Z,0.00
2017-10-17T03:10:55.057Z,0.00
2017-10-17T03:11:55.030Z,0.00
2017-10-17T03:12:55.011Z,0.00
2017-10-17T03:13:55.585Z,0.00
2017-10-17T03:14:54.964Z,0.00
2017-10-17T03:15:54.943Z,0.00
2017-10-17T03:16:54.921Z,0.00
2017-10-17T03:17:54.900Z,0.00
2017-10-17T03:18:54.883Z,0.00
2017-10-17T03:19:54.858Z,0.00
2017-10-17T03:20:54.841Z,0.00
2017-10-17T03:21:54.814Z,0.00
2017-10-17T03:22:54.791Z,0.00
2017-10-17T03:23:54.778Z,0.00
2017-10-17T03:24:54.746Z,0.00
2017-10-17T03:25:54.731Z,0.00
2017-10-17T03:26:54.704Z,0.00
2017-10-17T03:27:54.684Z,0.00
2017-10-17T03:28:54.664Z,0.00
2017-10-17T03:29:54.640Z,0.00
2017-10-17T03:30:54.918Z,0.00
2017-10-17T03:31:54.601Z,0.00
2017-10-17T03:32:54.577Z,0.00
2017-10-17T03:33:54.551Z,0.00
2017-10-17T03:34:54.532Z,0.00
2017-10-17T03:35:54.509Z,0.00
2017-10-17T03:36:54.486Z,0.00
2017-10-17T03:37:54.466Z,0.00
2017-10-17T03:38:54.442Z,0.00
2017-10-17T03:39:54.430Z,0.00
2017-10-17T03:40:54.398Z,0.00
2017-10-17T03:41:54.378Z,0.00
2017-10-17T03:42:54.360Z,0.00
2017-10-17T03:43:54.343Z,0.00
2017-10-17T03:44:54.312Z,0.00
2017-10-17T03:45:54.297Z,0.00
2017-10-17T03:46:54.269Z,0.00
2017-10-17T03:47:54.246Z,0.00
2017-10-17T03:48:54.474Z,0.00
2017-10-17T03:49:54.211Z,0.00
2017-10-17T03:50:54.180Z,0.00
2017-10-17T03:51:54.160Z,0.00
2017-10-17T03:52:54.136Z,0.00
2017-10-17T03:53:54.116Z,0.00
2017-10-17T03:54:54.096Z,0.00
2017-10-17T03:55:54.075Z,0.00
2017-10-17T03:56:54.050Z,0.00
2017-10-17T03:57:54.029Z,0.00
2017-10-17T03:58:54.013Z,0.00
2017-10-17T03:59:53.989Z,0.00
2017-10-17T04:00:53.973Z,0.00
2017-10-17T04:01:53.940Z,0.00
2017-10-17T04:02:53.920Z,0.00
2017-10-17T04:03:53.902Z,0.00
2017-10-17T04:04:53.877Z,0.00
2017-10-17T04:05:54.103Z,0.00
2017-10-17T04:06:53.836Z,0.00
2017-10-17T04:07:53.813Z,0.00
2017-10-17T04:08:53.786Z,0.00
2017-10-17T04:09:53.774Z,0.00
2017-10-17T04:10:53.747Z,0.00
2017-10-17T04:11:53.996Z,0.00
2017-10-17T04:12:53.702Z,0.00
2017-10-17T04:13:53.677Z,0.00
2017-10-17T04:14:53.660Z,0.00
2017-10-17T04:15:53.633Z,0.00
2017-10-17T04:16:53.614Z,0.00
2017-10-17T04:17:53.590Z,0.00
2017-10-17T04:18:53.576Z,0.00
2017-10-17T04:19:53.546Z,0.00
2017-10-17T04:20:53.521Z,0.00
2017-10-17T04:21:53.504Z,0.00
2017-10-17T04:22:53.482Z,0.00
2017-10-17T04:23:53.460Z,0.00
2017-10-17T04:24:53.441Z,0.00
2017-10-17T04:25:53.415Z,0.00
2017-10-17T04:26:53.391Z,0.00
2017-10-17T04:27:53.367Z,0.00
2017-10-17T04:28:53.346Z,0.00
2017-10-17T04:29:53.580Z,0.00
2017-10-17T04:30:53.302Z,0.00
2017-10-17T04:31:53.281Z,0.00
2017-10-17T04:32:53.260Z,0.00
2017-10-17T04:33:53.234Z,0.00
2017-10-17T04:34:53.216Z,0.00
2017-10-17T04:35:53.494Z,0.00
2017-10-17T04:36:53.174Z,0.00
2017-10-17T04:37:53.150Z,0.00
2017-10-17T04:38:53.123Z,0.00
2017-10-17T04:39:53.114Z,0.00
2017-10-17T04:40:53.081Z,0.00
2017-10-17T04:41:53.060Z,0.00
2017-10-17T04:42:53.038Z,0.00
2017-10-17T04:43:53.014Z,0.00
2017-10-17T04:44:52.989Z,0.00
2017-10-17T04:45:52.969Z,0.00
2017-10-17T04:46:53.252Z,0.00
2017-10-17T04:47:52.931Z,0.00
2017-10-17T04:48:52.904Z,0.00
2017-10-17T04:49:52.881Z,0.00
2017-10-17T04:50:52.861Z,0.00
2017-10-17T04:51:52.841Z,0.00
2017-10-17T04:52:52.813Z,0.00
2017-10-17T04:53:52.792Z,0.00
2017-10-17T04:54:52.770Z,0.00
2017-10-17T04:55:52.746Z,0.00
2017-10-17T04:56:52.725Z,0.00
2017-10-17T04:57:52.700Z,0.00
2017-10-17T04:58:52.681Z,0.00
2017-10-17T04:59:52.658Z,0.00
2017-10-17T05:00:52.641Z,0.00
2017-10-17T05:01:52.619Z,0.00
2017-10-17T05:02:52.596Z,0.00
2017-10-17T05:03:52.568Z,0.00
2017-10-17T05:04:52.852Z,0.00
2017-10-17T05:05:52.528Z,0.00
2017-10-17T05:06:52.501Z,0.00
2017-10-17T05:07:52.479Z,0.00
2017-10-17T05:08:52.458Z,0.00
2017-10-17T05:09:52.438Z,0.00
2017-10-17T05:10:52.414Z,0.00
2017-10-17T05:11:52.391Z,0.00
2017-10-17T05:12:52.367Z,0.00
2017-10-17T05:13:52.345Z,0.00
2017-10-17T05:14:52.328Z,0.00
2017-10-17T05:15:52.303Z,0.00
2017-10-17T05:16:52.277Z,0.00
2017-10-17T05:17:52.261Z,0.00
2017-10-17T05:18:52.236Z,0.00
2017-10-17T05:19:52.212Z,0.00
2017-10-17T05:20:52.192Z,0.00
2017-10-17T05:21:52.167Z,0.00
2017-10-17T05:22:52.150Z,0.00
2017-10-17T05:23:52.124Z,0.00
2017-10-17T05:24:52.100Z,0.00
2017-10-17T05:25:52.081Z,0.00
2017-10-17T05:26:52.060Z,0.00
2017-10-17T05:27:52.034Z,0.00
2017-10-17T05:28:52.011Z,0.00
2017-10-17T05:29:51.989Z,0.00
2017-10-17T05:30:51.968Z,0.00
2017-10-17T05:31:51.944Z,0.00
2017-10-17T05:32:51.926Z,0.00
2017-10-17T05:33:52.155Z,0.00
2017-10-17T05:34:51.880Z,0.00
2017-10-17T05:35:51.857Z,0.00
2017-10-17T05:36:51.838Z,0.00
2017-10-17T05:37:51.812Z,0.00
2017-10-17T05:38:51.787Z,0.00
2017-10-17T05:39:51.767Z,0.00
2017-10-17T05:40:51.742Z,0.00
2017-10-17T05:41:51.729Z,0.00
2017-10-17T05:42:51.700Z,0.00
2017-10-17T05:43:51.677Z,0.00
2017-10-17T05:44:51.666Z,0.00
2017-10-17T05:45:51.635Z,5.63
2017-10-17T05:46:51.607Z,5.63
2017-10-17T05:47:51.590Z,5.63
2017-10-17T05:48:51.580Z,5.63
2017-10-17T05:49:51.543Z,5.63
2017-10-17T05:50:51.526Z,5.63
2017-10-17T05:51:51.494Z,5.63
2017-10-17T05:52:51.474Z,5.63
2017-10-17T05:53:51.454Z,11.25
2017-10-17T05:54:51.432Z,11.25
2017-10-17T05:55:51.406Z,11.25
2017-10-17T05:56:51.632Z,11.25
2017-10-17T05:57:51.365Z,16.88
2017-10-17T05:58:51.344Z,16.88
2017-10-17T05:59:51.318Z,16.88
2017-10-17T06:00:51.297Z,16.88
2017-10-17T06:01:51.270Z,22.50
2017-10-17T06:02:51.249Z,22.50
2017-10-17T06:03:51.240Z,22.50
2017-10-17T06:04:51.202Z,22.50
2017-10-17T06:05:51.186Z,28.13
2017-10-17T06:06:51.158Z,28.13
2017-10-17T06:07:51.144Z,33.75
2017-10-17T06:08:51.464Z,33.75
2017-10-17T06:09:51.098Z,33.75
2017-10-17T06:10:51.092Z,39.38
2017-10-17T06:11:51.051Z,39.38
2017-10-17T06:12:51.030Z,45.00
2017-10-17T06:13:51.005Z,45.00
2017-10-17T06:14:51.278Z,45.00
2017-10-17T06:15:50.960Z,50.63
2017-10-17T06:16:50.946Z,50.63
2017-10-17T06:17:50.914Z,50.63
2017-10-17T06:18:50.889Z,56.25
2017-10-17T06:19:50.867Z,56.25
2017-10-17T06:20:51.093Z,56.25
2017-10-17T06:21:50.828Z,56.25
2017-10-17T06:22:50.798Z,56.25
2017-10-17T06:23:50.777Z,61.88
2017-10-17T06:24:50.755Z,61.88
2017-10-17T06:25:50.740Z,61.88
2017-10-17T06:26:50.708Z,67.50
2017-10-17T06:27:50.686Z,67.50
2017-10-17T06:28:50.664Z,73.13
2017-10-17T06:29:50.645Z,73.13
2017-10-17T06:30:50.623Z,73.13
2017-10-17T06:31:50.598Z,78.75
2017-10-17T06:32:50.574Z,78.75
2017-10-17T06:33:50.558Z,78.75
2017-10-17T06:34:50.536Z,78.75
2017-10-17T06:35:50.515Z,84.38
2017-10-17T06:36:50.489Z,78.75
2017-10-17T06:37:50.462Z,78.75
2017-10-17T06:38:50.447Z,84.38
2017-10-17T06:39:50.419Z,84.38
2017-10-17T06:40:50.398Z,90.00
2017-10-17T06:41:50.375Z,90.00
2017-10-17T06:42:50.360Z,90.00
2017-10-17T06:43:50.337Z,95.63
2017-10-17T06:44:50.306Z,95.63
2017-10-17T06:45:50.292Z,101.25
2017-10-17T06:46:50.265Z,101.25
2017-10-17T06:47:50.240Z,101.25
2017-10-17T06:48:50.220Z,106.88
2017-10-17T06:49:50.194Z,106.88
2017-10-17T06:50:50.171Z,106.88
2017-10-17T06:51:50.153Z,112.50
2017-10-17T06:52:50.139Z,112.50
2017-10-17T06:53:50.104Z,112.50
2017-10-17T06:54:50.084Z,112.50
2017-10-17T06:55:50.062Z,112.50
2017-10-17T06:56:50.038Z,118.13
2017-10-17T06:57:50.020Z,118.13
2017-10-17T06:58:49.993Z,118.13
2017-10-17T06:59:49.976Z,118.13
2017-10-17T07:00:49.951Z,118.13
2017-10-17T07:01:49.927Z,118.13
2017-10-17T07:02:49.911Z,118.13
2017-10-17T07:03:49.885Z,118.13
2017-10-17T07:04:49.861Z,118.13
2017-10-17T07:05:49.840Z,118.13
2017-10-17T07:06:50.174Z,118.13
2017-10-17T07:07:49.798Z,123.75
2017-10-17T07:08:49.773Z,123.75
2017-10-17T07:09:49.753Z,123.75
2017-10-17T07:10:49.733Z,129.38
2017-10-17T07:11:49.705Z,129.38
2017-10-17T07:12:49.933Z,135.00
2017-10-17T07:13:49.667Z,135.00
2017-10-17T07:14:49.638Z,135.00
2017-10-17T07:15:49.624Z,140.63
2017-10-17T07:16:49.594Z,140.63
2017-10-17T07:17:49.596Z,146.25
2017-10-17T07:18:49.553Z,146.25
2017-10-17T07:19:49.528Z,146.25
2017-10-17T07:20:49.512Z,151.88
2017-10-17T07:21:49.480Z,151.88
2017-10-17T07:22:49.459Z,157.50
2017-10-17T07:23:49.437Z,157.50
2017-10-17T07:24:49.415Z,163.13
2017-10-17T07:25:49.392Z,163.13
2017-10-17T07:26:49.371Z,168.75
2017-10-17T07:27:49.348Z,168.75
2017-10-17T07:28:49.323Z,168.75
2017-10-17T07:29:49.303Z,174.38
2017-10-17T07:30:49.280Z,174.38
2017-10-17T07:31:49.260Z,174.38
2017-10-17T07:32:49.245Z,180.00
2017-10-17T07:33:49.215Z,180.00
2017-10-17T07:34:49.197Z,180.00
2017-10-17T07:35:49.169Z,180.00
2017-10-17T07:36:49.152Z,180.00
2017-10-17T07:37:49.128Z,180.00
2017-10-17T07:38:49.111Z,180.00
2017-10-17T07:39:49.090Z,180.00
2017-10-17T07:40:49.060Z,185.63
2017-10-17T07:41:49.035Z,185.63
2017-10-17T07:42:49.265Z,191.25
2017-10-17T07:43:48.993Z,196.88
2017-10-17T07:44:48.967Z,196.88
2017-10-17T07:45:48.946Z,202.50
2017-10-17T07:46:48.927Z,208.13
2017-10-17T07:47:48.906Z,213.75
2017-10-17T07:48:48.881Z,213.75
2017-10-17T07:49:48.857Z,219.38
2017-10-17T07:50:48.836Z,225.00
2017-10-17T07:51:48.822Z,230.63
2017-10-17T07:52:48.792Z,236.25
2017-10-17T07:53:48.781Z,236.25
2017-10-17T07:54:48.749Z,241.88
2017-10-17T07:55:48.729Z,247.50
2017-10-17T07:56:48.709Z,253.13
2017-10-17T07:57:48.684Z,253.13
2017-10-17T07:58:48.659Z,253.13
2017-10-17T07:59:48.899Z,258.75
2017-10-17T08:00:48.622Z,270.00
2017-10-17T08:01:48.594Z,270.00
2017-10-17T08:02:48.573Z,275.63
2017-10-17T08:03:48.555Z,281.25
2017-10-17T08:04:48.531Z,286.88
2017-10-17T08:05:48.508Z,292.50
2017-10-17T08:06:48.488Z,292.50
2017-10-17T08:07:48.463Z,298.13
2017-10-17T08:08:48.439Z,309.38
2017-10-17T08:09:48.421Z,315.00
2017-10-17T08:10:48.403Z,315.00
2017-10-17T08:11:48.677Z,320.63
2017-10-17T08:12:48.354Z,331.88
2017-10-17T08:13:48.328Z,337.50
2017-10-17T08:14:48.317Z,337.50
2017-10-17T08:15:48.293Z,348.75
2017-10-17T08:16:48.266Z,360.00
2017-10-17T08:17:48.242Z,354.38
2017-10-17T08:18:48.219Z,354.38
2017-10-17T08:19:48.203Z,360.00
2017-10-17T08:20:48.177Z,354.38
2017-10-17T08:21:48.158Z,365.63
2017-10-17T08:22:48.132Z,360.00
2017-10-17T08:23:48.117Z,365.63
2017-10-17T08:24:48.096Z,371.25
2017-10-17T08:25:48.068Z,371.25
2017-10-17T08:26:48.047Z,371.25
2017-10-17T08:27:48.025Z,371.25
2017-10-17T08:28:48.002Z,376.88
2017-10-17T08:29:48.240Z,376.88
2017-10-17T08:30:47.961Z,382.50
2017-10-17T08:31:47.940Z,393.75
2017-10-17T08:32:47.917Z,399.38
2017-10-17T08:33:47.891Z,405.00
2017-10-17T08:34:47.874Z,416.25
2017-10-17T08:35:47.851Z,421.88
2017-10-17T08:36:47.831Z,427.50
2017-10-17T08:37:47.808Z,433.13
2017-10-17T08:38:47.789Z,438.75
2017-10-17T08:39:47.762Z,444.38
2017-10-17T08:40:47.738Z,450.00
2017-10-17T08:41:47.721Z,455.63
2017-10-17T08:42:47.714Z,466.88
2017-10-17T08:43:47.675Z,466.88
2017-10-17T08:44:47.653Z,478.13
2017-10-17T08:45:47.641Z,489.38
2017-10-17T08:46:47.609Z,500.63
2017-10-17T08:47:47.590Z,506.25
2017-10-17T08:48:47.567Z,511.88
2017-10-17T08:49:47.545Z,523.13
2017-10-17T08:50:47.530Z,528.75
2017-10-17T08:51:47.502Z,534.38
2017-10-17T08:52:47.482Z,534.38
2017-10-17T08:53:47.459Z,545.63
2017-10-17T08:54:47.443Z,545.63
2017-10-17T08:55:47.422Z,551.25
2017-10-17T08:56:47.394Z,556.88
2017-10-17T08:57:47.375Z,562.50
2017-10-17T08:58:47.353Z,568.13
2017-10-17T08:59:47.333Z,568.13
2017-10-17T09:00:47.310Z,573.75
2017-10-17T09:01:47.288Z,585.00
2017-10-17T09:02:47.264Z,585.00
2017-10-17T09:03:47.245Z,590.63
2017-10-17T09:04:47.223Z,596.25
2017-10-17T09:05:47.203Z,596.25
2017-10-17T09:06:47.188Z,601.88
2017-10-17T09:07:47.170Z,613.13
2017-10-17T09:08:47.139Z,613.13
2017-10-17T09:09:47.118Z,613.13
2017-10-17T09:10:47.098Z,624.38
2017-10-17T09:11:47.077Z,624.38
2017-10-17T09:12:47.054Z,641.25
2017-10-17T09:13:47.030Z,635.63
2017-10-17T09:14:47.016Z,646.88
2017-10-17T09:15:46.990Z,658.13
2017-10-17T09:16:46.970Z,669.38
2017-10-17T09:17:46.944Z,680.63
2017-10-17T09:18:46.929Z,691.88
2017-10-17T09:19:46.905Z,703.13
2017-10-17T09:20:46.884Z,714.38
2017-10-17T09:21:46.859Z,725.63
2017-10-17T09:22:46.839Z,742.50
2017-10-17T09:23:46.824Z,753.75
2017-10-17T09:24:46.800Z,776.25
2017-10-17T09:25:46.779Z,804.38
2017-10-17T09:26:46.759Z,821.25
2017-10-17T09:27:46.738Z,832.50
2017-10-17T09:28:46.719Z,838.13
2017-10-17T09:29:46.696Z,843.75
2017-10-17T09:30:46.671Z,849.38
2017-10-17T09:31:46.652Z,866.25
2017-10-17T09:32:46.631Z,888.75
2017-10-17T09:33:46.613Z,905.63
2017-10-17T09:34:46.587Z,933.75
2017-10-17T09:35:46.573Z,945.00
2017-10-17T09:36:46.553Z,973.13
2017-10-17T09:37:46.532Z,995.63
2017-10-17T09:38:46.505Z,1001.25
2017-10-17T09:39:46.485Z,1001.25
2017-10-17T09:40:46.464Z,1018.13
2017-10-17T09:41:46.450Z,1018.13
2017-10-17T09:42:46.422Z,1035.00
2017-10-17T09:43:46.403Z,1046.25
2017-10-17T09:44:46.412Z,1057.50
2017-10-17T09:45:46.621Z,1057.50
2017-10-17T09:46:46.340Z,1051.88
2017-10-17T09:47:46.318Z,1057.50
2017-10-17T09:48:46.316Z,1051.88
2017-10-17T09:49:46.280Z,1046.25
2017-10-17T09:50:46.260Z,1051.88
2017-10-17T09:51:46.244Z,1051.88
2017-10-17T09:52:46.216Z,1051.88
2017-10-17T09:53:46.202Z,1051.88
2017-10-17T09:54:46.183Z,1057.50
2017-10-17T09:55:46.157Z,1040.63
2017-10-17T09:56:46.145Z,1057.50
2017-10-17T09:57:46.125Z,1046.25
2017-10-17T09:58:46.097Z,1046.25
2017-10-17T09:59:46.084Z,1080.00
2017-10-17T10:00:46.059Z,1074.38
2017-10-17T10:01:46.042Z,1085.63
2017-10-17T10:02:46.018Z,1108.13
2017-10-17T10:03:45.998Z,1096.88
2017-10-17T10:04:45.979Z,1102.50
2017-10-17T10:05:45.960Z,1096.88
2017-10-17T10:06:45.940Z,1108.13
2017-10-17T10:07:45.922Z,1102.50
2017-10-17T10:08:45.899Z,1108.13
2017-10-17T10:09:45.898Z,1130.63
2017-10-17T10:10:45.860Z,1147.50
2017-10-17T10:11:45.840Z,1147.50
2017-10-17T10:12:45.820Z,1153.13
2017-10-17T10:13:45.806Z,1141.88
2017-10-17T10:14:46.038Z,1181.25
2017-10-17T10:15:45.763Z,1192.50
2017-10-17T10:16:45.739Z,1181.25
2017-10-17T10:17:45.730Z,1215.00
2017-10-17T10:18:45.699Z,1203.75
2017-10-17T10:19:45.687Z,1192.50
2017-10-17T10:20:45.663Z,1203.75
2017-10-17T10:21:45.641Z,1186.88
2017-10-17T10:22:45.628Z,1192.50
2017-10-17T10:23:45.608Z,1186.88
2017-10-17T10:24:45.588Z,1186.88
2017-10-17T10:25:45.572Z,1226.25
2017-10-17T10:26:45.545Z,1265.63
2017-10-17T10:27:45.557Z,1282.50
2017-10-17T10:28:45.504Z,1321.88
2017-10-17T10:29:45.489Z,1310.63
2017-10-17T10:30:45.473Z,1321.88
2017-10-17T10:31:45.445Z,1310.63
2017-10-17T10:32:45.430Z,1321.88
2017-10-17T10:33:45.407Z,1293.75
2017-10-17T10:34:45.387Z,1333.13
2017-10-17T10:35:45.368Z,1350.00
2017-10-17T10:36:45.351Z,1299.38
2017-10-17T10:37:45.329Z,1316.25
2017-10-17T10:38:45.315Z,1355.63
2017-10-17T10:39:45.291Z,1321.88
2017-10-17T10:40:45.276Z,1305.00
2017-10-17T10:41:45.254Z,1288.13
2017-10-17T10:42:45.232Z,1293.75
2017-10-17T10:43:45.214Z,1305.00
2017-10-17T10:44:45.197Z,1293.75
2017-10-17T10:45:45.175Z,1288.13
2017-10-17T10:46:45.159Z,1293.75
2017-10-17T10:47:45.137Z,1276.88
2017-10-17T10:48:45.126Z,1248.75
2017-10-17T10:49:45.352Z,1237.50
2017-10-17T10:50:45.083Z,1231.88
2017-10-17T10:51:45.064Z,1231.88
2017-10-17T10:52:45.043Z,1192.50
2017-10-17T10:53:45.030Z,1231.88
2017-10-17T10:54:45.007Z,1209.38
2017-10-17T10:55:44.996Z,1181.25
2017-10-17T10:56:44.967Z,1158.75
2017-10-17T10:57:44.955Z,1153.13
2017-10-17T10:58:44.930Z,1158.75
2017-10-17T10:59:44.912Z,1164.38
2017-10-17T11:00:44.890Z,1164.38
2017-10-17T11:01:44.872Z,1141.88
2017-10-17T11:02:44.858Z,1113.75
2017-10-17T11:03:44.841Z,1085.63
2017-10-17T11:04:44.818Z,1068.75
2017-10-17T11:05:44.798Z,1080.00
2017-10-17T11:06:44.778Z,1068.75
2017-10-17T11:07:44.763Z,1074.38
2017-10-17T11:08:44.741Z,1074.38
2017-10-17T11:09:44.727Z,1063.13
2017-10-17T11:10:44.705Z,1051.88
2017-10-17T11:11:44.687Z,1035.00
2017-10-17T11:12:44.668Z,1023.75
2017-10-17T11:13:45.204Z,1001.25
2017-10-17T11:14:44.629Z,978.75
2017-10-17T11:15:44.612Z,973.13
2017-10-17T11:16:44.591Z,961.88
2017-10-17T11:17:44.577Z,961.88
2017-10-17T11:18:44.587Z,950.63
2017-10-17T11:19:44.532Z,939.38
2017-10-17T11:20:44.517Z,945.00
2017-10-17T11:21:44.496Z,978.75
2017-10-17T11:22:44.479Z,1012.50
2017-10-17T11:23:44.460Z,1046.25
2017-10-17T11:24:44.444Z,1085.63
2017-10-17T11:25:44.424Z,1085.63
2017-10-17T11:26:44.405Z,1074.38
2017-10-17T11:27:44.380Z,1046.25
2017-10-17T11:28:44.359Z,1035.00
2017-10-17T11:29:44.339Z,1051.88
2017-10-17T11:30:44.337Z,1068.75
2017-10-17T11:31:44.301Z,1074.38
2017-10-17T11:32:44.285Z,1085.63
2017-10-17T11:33:44.263Z,1091.25
2017-10-17T11:34:44.249Z,1108.13
2017-10-17T11:35:44.229Z,1068.75
2017-10-17T11:36:44.203Z,1063.13
2017-10-17T11:37:44.185Z,1068.75
2017-10-17T11:38:44.165Z,1125.00
2017-10-17T11:39:44.154Z,1175.63
2017-10-17T11:40:44.130Z,1203.75
2017-10-17T11:41:44.107Z,1170.00
2017-10-17T11:42:44.090Z,1164.38
2017-10-17T11:43:44.076Z,1181.25
2017-10-17T11:44:44.067Z,1186.88
2017-10-17T11:45:44.041Z,1170.00
2017-10-17T11:46:44.010Z,1192.50
2017-10-17T11:47:44.004Z,1203.75
2017-10-17T11:48:43.973Z,1226.25
2017-10-17T11:49:43.953Z,1288.13
2017-10-17T11:50:43.941Z,1316.25
2017-10-17T11:51:43.924Z,1305.00
2017-10-17T11:52:43.896Z,1321.88
2017-10-17T11:53:44.230Z,1338.75
2017-10-17T11:54:43.862Z,1321.88
2017-10-17T11:55:43.839Z,1293.75
2017-10-17T11:56:43.822Z,1288.13
2017-10-17T11:57:43.806Z,1271.25
2017-10-17T11:58:43.786Z,1271.25
2017-10-17T11:59:43.765Z,1271.25
2017-10-17T12:00:43.748Z,1243.13
2017-10-17T12:01:43.721Z,1243.13
2017-10-17T12:02:43.710Z,1248.75
2017-10-17T12:03:43.687Z,1226.25
2017-10-17T12:04:43.675Z,1209.38
2017-10-17T12:05:43.645Z,1209.38
2017-10-17T12:06:43.627Z,1209.38
2017-10-17T12:07:43.608Z,1209.38
2017-10-17T12:08:43.598Z,1209.38
2017-10-17T12:09:43.572Z,1209.38
2017-10-17T12:10:43.554Z,1215.00
2017-10-17T12:11:43.535Z,1220.63
2017-10-17T12:12:43.525Z,1226.25
2017-10-17T12:13:43.497Z,1215.00
2017-10-17T12:14:43.483Z,1220.63
2017-10-17T12:15:43.459Z,1220.63
2017-10-17T12:16:43.442Z,1265.63
2017-10-17T12:17:43.677Z,1237.50
2017-10-17T12:18:43.410Z,1243.13
2017-10-17T12:19:43.388Z,1220.63
2017-10-17T12:20:43.365Z,1220.63
2017-10-17T12:21:43.350Z,1203.75
2017-10-17T12:22:43.329Z,1181.25
2017-10-17T12:23:43.310Z,1175.63
2017-10-17T12:24:43.292Z,1153.13
2017-10-17T12:25:43.275Z,1158.75
2017-10-17T12:26:43.258Z,1136.25
2017-10-17T12:27:43.238Z,1141.88
2017-10-17T12:28:43.218Z,1130.63
2017-10-17T12:29:43.205Z,1136.25
2017-10-17T12:30:43.182Z,1147.50
2017-10-17T12:31:43.162Z,1153.13
2017-10-17T12:32:43.142Z,1153.13
2017-10-17T12:33:43.135Z,1125.00
2017-10-17T12:34:43.123Z,1125.00
2017-10-17T12:35:43.088Z,1096.88
2017-10-17T12:36:43.072Z,1085.63
2017-10-17T12:37:43.061Z,1080.00
2017-10-17T12:38:43.073Z,1051.88
2017-10-17T12:39:43.015Z,1035.00
2017-10-17T12:40:43.301Z,1006.88
2017-10-17T12:41:42.973Z,1006.88
2017-10-17T12:42:42.957Z,978.75
2017-10-17T12:43:42.937Z,967.50
2017-10-17T12:44:42.921Z,967.50
2017-10-17T12:45:42.908Z,950.63
2017-10-17T12:46:43.132Z,928.13